sensor_id;sensor_type;location;lat;lon;timestamp;P1;durP1;ratioP1;P2;durP2;ratioP2
59338;SDS011;45117;50.960;5.500;2023-05-16T00:02:04;15.60;;;3.83;;
59338;SDS011;45117;50.960;5.500;2023-05-16T00:04:30;14.98;;;3.40;;
59338;SDS011;45117;50.960;5.500;2023-05-16T00:06:59;13.10;;;3.55;;
59338;SDS011;45117;50.960;5.500;2023-05-16T00:09:25;16.40;;;3.13;;
59338;SDS011;45117;50.960;5.500;2023-05-16T00:11:52;20.48;;;3.70;;
59338;SDS011;45117;50.960;5.500;2023-05-16T00:14:18;18.00;;;3.78;;
59338;SDS011;45117;50.960;5.500;2023-05-16T00:16:45;13.02;;;3.42;;
59338;SDS011;45117;50.960;5.500;2023-05-16T00:19:12;17.73;;;3.35;;
59338;SDS011;45117;50.960;5.500;2023-05-16T00:21:39;15.30;;;3.65;;
59338;SDS011;45117;50.960;5.500;2023-05-16T00:24:07;17.20;;;3.80;;
59338;SDS011;45117;50.960;5.500;2023-05-16T00:26:33;13.55;;;3.50;;
59338;SDS011;45117;50.960;5.500;2023-05-16T00:29:00;18.50;;;3.47;;
59338;SDS011;45117;50.960;5.500;2023-05-16T00:31:26;17.73;;;3.95;;
59338;SDS011;45117;50.960;5.500;2023-05-16T00:33:53;13.45;;;3.58;;
59338;SDS011;45117;50.960;5.500;2023-05-16T00:36:19;18.25;;;3.35;;
59338;SDS011;45117;50.960;5.500;2023-05-16T00:38:46;22.20;;;3.67;;
59338;SDS011;45117;50.960;5.500;2023-05-16T00:41:15;16.95;;;3.88;;
59338;SDS011;45117;50.960;5.500;2023-05-16T00:43:41;16.20;;;3.40;;
59338;SDS011;45117;50.960;5.500;2023-05-16T00:46:09;14.65;;;3.38;;
59338;SDS011;45117;50.960;5.500;2023-05-16T00:48:35;17.92;;;3.33;;
59338;SDS011;45117;50.960;5.500;2023-05-16T00:51:02;17.30;;;3.25;;
59338;SDS011;45117;50.960;5.500;2023-05-16T00:53:33;18.25;;;3.95;;
59338;SDS011;45117;50.960;5.500;2023-05-16T00:55:59;16.83;;;3.05;;
59338;SDS011;45117;50.960;5.500;2023-05-16T00:58:28;12.45;;;3.33;;
59338;SDS011;45117;50.960;5.500;2023-05-16T01:00:56;17.27;;;3.40;;
59338;SDS011;45117;50.960;5.500;2023-05-16T01:03:23;14.70;;;2.90;;
59338;SDS011;45117;50.960;5.500;2023-05-16T01:05:49;14.20;;;3.08;;
59338;SDS011;45117;50.960;5.500;2023-05-16T01:08:17;13.32;;;3.03;;
59338;SDS011;45117;50.960;5.500;2023-05-16T01:10:47;14.23;;;3.28;;
59338;SDS011;45117;50.960;5.500;2023-05-16T01:13:21;18.65;;;3.40;;
59338;SDS011;45117;50.960;5.500;2023-05-16T01:15:55;22.17;;;3.63;;
59338;SDS011;45117;50.960;5.500;2023-05-16T01:18:30;14.43;;;2.78;;
59338;SDS011;45117;50.960;5.500;2023-05-16T01:21:07;15.02;;;3.00;;
59338;SDS011;45117;50.960;5.500;2023-05-16T01:23:45;15.57;;;2.95;;
59338;SDS011;45117;50.960;5.500;2023-05-16T01:26:19;15.45;;;2.63;;
59338;SDS011;45117;50.960;5.500;2023-05-16T01:28:47;15.00;;;2.92;;
59338;SDS011;45117;50.960;5.500;2023-05-16T01:31:15;15.90;;;3.53;;
59338;SDS011;45117;50.960;5.500;2023-05-16T01:33:42;18.98;;;2.85;;
59338;SDS011;45117;50.960;5.500;2023-05-16T01:36:10;19.95;;;3.10;;
59338;SDS011;45117;50.960;5.500;2023-05-16T01:38:43;14.95;;;2.67;;
59338;SDS011;45117;50.960;5.500;2023-05-16T01:41:20;19.90;;;2.83;;
59338;SDS011;45117;50.960;5.500;2023-05-16T01:43:50;17.05;;;2.83;;
59338;SDS011;45117;50.960;5.500;2023-05-16T01:46:20;21.65;;;2.88;;
59338;SDS011;45117;50.960;5.500;2023-05-16T01:48:50;15.77;;;2.28;;
59338;SDS011;45117;50.960;5.500;2023-05-16T01:51:20;16.83;;;2.65;;
59338;SDS011;45117;50.960;5.500;2023-05-16T01:53:47;12.68;;;2.60;;
59338;SDS011;45117;50.960;5.500;2023-05-16T01:56:15;13.40;;;2.40;;
59338;SDS011;45117;50.960;5.500;2023-05-16T01:58:44;15.43;;;2.45;;
59338;SDS011;45117;50.960;5.500;2023-05-16T02:01:11;15.55;;;2.40;;
59338;SDS011;45117;50.960;5.500;2023-05-16T02:03:38;15.45;;;2.63;;
59338;SDS011;45117;50.960;5.500;2023-05-16T02:06:05;21.05;;;2.30;;
59338;SDS011;45117;50.960;5.500;2023-05-16T02:08:31;13.93;;;2.45;;
59338;SDS011;45117;50.960;5.500;2023-05-16T02:10:58;19.13;;;2.67;;
59338;SDS011;45117;50.960;5.500;2023-05-16T02:13:25;12.30;;;2.28;;
59338;SDS011;45117;50.960;5.500;2023-05-16T02:15:52;18.08;;;2.70;;
59338;SDS011;45117;50.960;5.500;2023-05-16T02:18:19;11.90;;;2.38;;
59338;SDS011;45117;50.960;5.500;2023-05-16T02:20:47;12.02;;;2.25;;
59338;SDS011;45117;50.960;5.500;2023-05-16T02:23:14;14.48;;;2.20;;
59338;SDS011;45117;50.960;5.500;2023-05-16T02:25:40;22.73;;;2.47;;
59338;SDS011;45117;50.960;5.500;2023-05-16T02:28:07;18.88;;;2.55;;
59338;SDS011;45117;50.960;5.500;2023-05-16T02:30:33;16.75;;;2.40;;
59338;SDS011;45117;50.960;5.500;2023-05-16T02:33:01;14.27;;;2.45;;
59338;SDS011;45117;50.960;5.500;2023-05-16T02:35:28;18.15;;;2.55;;
59338;SDS011;45117;50.960;5.500;2023-05-16T02:37:54;13.80;;;2.45;;
59338;SDS011;45117;50.960;5.500;2023-05-16T02:40:21;17.92;;;2.58;;
59338;SDS011;45117;50.960;5.500;2023-05-16T02:42:48;16.70;;;3.05;;
59338;SDS011;45117;50.960;5.500;2023-05-16T02:45:14;8.52;;;1.80;;
59338;SDS011;45117;50.960;5.500;2023-05-16T02:47:41;13.10;;;2.25;;
59338;SDS011;45117;50.960;5.500;2023-05-16T02:50:09;11.98;;;2.08;;
59338;SDS011;45117;50.960;5.500;2023-05-16T02:52:35;14.85;;;2.38;;
59338;SDS011;45117;50.960;5.500;2023-05-16T02:55:02;20.27;;;2.05;;
59338;SDS011;45117;50.960;5.500;2023-05-16T02:57:30;15.88;;;2.08;;
59338;SDS011;45117;50.960;5.500;2023-05-16T02:59:56;14.52;;;1.95;;
59338;SDS011;45117;50.960;5.500;2023-05-16T03:02:23;17.70;;;2.38;;
59338;SDS011;45117;50.960;5.500;2023-05-16T03:04:49;14.25;;;2.47;;
59338;SDS011;45117;50.960;5.500;2023-05-16T03:07:17;12.85;;;2.08;;
59338;SDS011;45117;50.960;5.500;2023-05-16T03:09:43;14.82;;;2.20;;
59338;SDS011;45117;50.960;5.500;2023-05-16T03:12:10;15.10;;;1.70;;
59338;SDS011;45117;50.960;5.500;2023-05-16T03:14:36;16.60;;;2.13;;
59338;SDS011;45117;50.960;5.500;2023-05-16T03:17:03;18.85;;;2.08;;
59338;SDS011;45117;50.960;5.500;2023-05-16T03:19:29;14.32;;;2.28;;
59338;SDS011;45117;50.960;5.500;2023-05-16T03:21:56;18.13;;;2.47;;
59338;SDS011;45117;50.960;5.500;2023-05-16T03:24:24;12.43;;;2.20;;
59338;SDS011;45117;50.960;5.500;2023-05-16T03:26:50;15.30;;;2.40;;
59338;SDS011;45117;50.960;5.500;2023-05-16T03:29:18;12.55;;;1.90;;
59338;SDS011;45117;50.960;5.500;2023-05-16T03:31:44;12.35;;;2.10;;
59338;SDS011;45117;50.960;5.500;2023-05-16T03:34:11;14.60;;;2.10;;
59338;SDS011;45117;50.960;5.500;2023-05-16T03:36:37;12.68;;;1.98;;
59338;SDS011;45117;50.960;5.500;2023-05-16T03:39:04;14.35;;;2.28;;
59338;SDS011;45117;50.960;5.500;2023-05-16T03:41:32;10.20;;;1.75;;
59338;SDS011;45117;50.960;5.500;2023-05-16T03:43:59;13.77;;;2.10;;
59338;SDS011;45117;50.960;5.500;2023-05-16T03:46:26;10.23;;;1.63;;
59338;SDS011;45117;50.960;5.500;2023-05-16T03:48:52;13.10;;;2.20;;
59338;SDS011;45117;50.960;5.500;2023-05-16T03:51:19;17.42;;;2.00;;
59338;SDS011;45117;50.960;5.500;2023-05-16T03:53:45;14.50;;;1.90;;
59338;SDS011;45117;50.960;5.500;2023-05-16T03:56:12;11.95;;;2.45;;
59338;SDS011;45117;50.960;5.500;2023-05-16T03:58:39;12.40;;;1.70;;
59338;SDS011;45117;50.960;5.500;2023-05-16T04:01:06;10.60;;;2.20;;
59338;SDS011;45117;50.960;5.500;2023-05-16T04:03:33;16.17;;;2.40;;
59338;SDS011;45117;50.960;5.500;2023-05-16T04:06:00;19.23;;;2.50;;
59338;SDS011;45117;50.960;5.500;2023-05-16T04:08:26;19.05;;;2.60;;
59338;SDS011;45117;50.960;5.500;2023-05-16T04:10:53;9.93;;;1.80;;
59338;SDS011;45117;50.960;5.500;2023-05-16T04:13:19;13.60;;;2.30;;
59338;SDS011;45117;50.960;5.500;2023-05-16T04:15:48;13.10;;;2.00;;
59338;SDS011;45117;50.960;5.500;2023-05-16T04:18:14;13.00;;;1.90;;
59338;SDS011;45117;50.960;5.500;2023-05-16T04:20:41;13.63;;;1.77;;
59338;SDS011;45117;50.960;5.500;2023-05-16T04:23:08;14.10;;;2.15;;
59338;SDS011;45117;50.960;5.500;2023-05-16T04:25:35;16.65;;;2.13;;
59338;SDS011;45117;50.960;5.500;2023-05-16T04:28:02;14.38;;;2.47;;
59338;SDS011;45117;50.960;5.500;2023-05-16T04:30:29;15.63;;;2.35;;
59338;SDS011;45117;50.960;5.500;2023-05-16T04:32:57;14.77;;;2.20;;
59338;SDS011;45117;50.960;5.500;2023-05-16T04:35:24;13.68;;;2.28;;
59338;SDS011;45117;50.960;5.500;2023-05-16T04:37:52;16.73;;;2.47;;
59338;SDS011;45117;50.960;5.500;2023-05-16T04:40:18;15.70;;;2.30;;
59338;SDS011;45117;50.960;5.500;2023-05-16T04:42:45;15.35;;;2.40;;
59338;SDS011;45117;50.960;5.500;2023-05-16T04:45:11;15.60;;;1.90;;
59338;SDS011;45117;50.960;5.500;2023-05-16T04:47:38;16.00;;;2.20;;
59338;SDS011;45117;50.960;5.500;2023-05-16T04:50:07;22.33;;;2.40;;
59338;SDS011;45117;50.960;5.500;2023-05-16T04:52:34;16.05;;;2.47;;
59338;SDS011;45117;50.960;5.500;2023-05-16T04:55:02;14.55;;;2.60;;
59338;SDS011;45117;50.960;5.500;2023-05-16T04:57:29;8.95;;;2.15;;
59338;SDS011;45117;50.960;5.500;2023-05-16T04:59:55;12.52;;;2.15;;
59338;SDS011;45117;50.960;5.500;2023-05-16T05:02:22;12.02;;;1.98;;
59338;SDS011;45117;50.960;5.500;2023-05-16T05:04:48;16.30;;;2.40;;
59338;SDS011;45117;50.960;5.500;2023-05-16T05:07:16;10.45;;;1.73;;
59338;SDS011;45117;50.960;5.500;2023-05-16T05:09:43;10.85;;;2.03;;
59338;SDS011;45117;50.960;5.500;2023-05-16T05:12:10;10.20;;;2.00;;
59338;SDS011;45117;50.960;5.500;2023-05-16T05:14:36;12.95;;;2.33;;
59338;SDS011;45117;50.960;5.500;2023-05-16T05:17:03;14.73;;;2.08;;
59338;SDS011;45117;50.960;5.500;2023-05-16T05:19:30;8.00;;;1.60;;
59338;SDS011;45117;50.960;5.500;2023-05-16T05:21:56;15.68;;;2.83;;
59338;SDS011;45117;50.960;5.500;2023-05-16T05:24:24;10.27;;;2.00;;
59338;SDS011;45117;50.960;5.500;2023-05-16T05:26:51;14.55;;;2.13;;
59338;SDS011;45117;50.960;5.500;2023-05-16T05:29:17;14.43;;;2.45;;
59338;SDS011;45117;50.960;5.500;2023-05-16T05:31:44;11.95;;;2.20;;
59338;SDS011;45117;50.960;5.500;2023-05-16T05:34:11;11.05;;;2.10;;
59338;SDS011;45117;50.960;5.500;2023-05-16T05:36:37;13.57;;;2.13;;
59338;SDS011;45117;50.960;5.500;2023-05-16T05:39:04;11.63;;;1.88;;
59338;SDS011;45117;50.960;5.500;2023-05-16T05:41:32;14.30;;;2.33;;
59338;SDS011;45117;50.960;5.500;2023-05-16T05:43:58;15.10;;;2.78;;
59338;SDS011;45117;50.960;5.500;2023-05-16T05:46:25;10.98;;;2.33;;
59338;SDS011;45117;50.960;5.500;2023-05-16T05:48:54;10.45;;;1.90;;
59338;SDS011;45117;50.960;5.500;2023-05-16T05:51:21;10.82;;;1.75;;
59338;SDS011;45117;50.960;5.500;2023-05-16T05:53:48;13.20;;;2.03;;
59338;SDS011;45117;50.960;5.500;2023-05-16T05:56:14;10.73;;;2.05;;
59338;SDS011;45117;50.960;5.500;2023-05-16T05:58:46;9.65;;;1.77;;
59338;SDS011;45117;50.960;5.500;2023-05-16T06:01:13;13.43;;;2.10;;
59338;SDS011;45117;50.960;5.500;2023-05-16T06:03:39;16.58;;;2.22;;
59338;SDS011;45117;50.960;5.500;2023-05-16T06:06:06;9.88;;;1.92;;
59338;SDS011;45117;50.960;5.500;2023-05-16T06:08:33;10.80;;;1.98;;
59338;SDS011;45117;50.960;5.500;2023-05-16T06:11:00;12.90;;;1.55;;
59338;SDS011;45117;50.960;5.500;2023-05-16T06:13:26;11.65;;;1.75;;
59338;SDS011;45117;50.960;5.500;2023-05-16T06:15:54;11.85;;;1.80;;
59338;SDS011;45117;50.960;5.500;2023-05-16T06:18:21;10.00;;;2.08;;
59338;SDS011;45117;50.960;5.500;2023-05-16T06:20:47;11.07;;;2.25;;
59338;SDS011;45117;50.960;5.500;2023-05-16T06:23:14;9.93;;;1.83;;
59338;SDS011;45117;50.960;5.500;2023-05-16T06:25:41;9.38;;;1.90;;
59338;SDS011;45117;50.960;5.500;2023-05-16T06:28:07;11.05;;;1.75;;
59338;SDS011;45117;50.960;5.500;2023-05-16T06:30:34;7.03;;;1.33;;
59338;SDS011;45117;50.960;5.500;2023-05-16T06:33:04;8.95;;;1.42;;
59338;SDS011;45117;50.960;5.500;2023-05-16T06:35:30;8.98;;;1.60;;
59338;SDS011;45117;50.960;5.500;2023-05-16T06:37:57;6.53;;;1.50;;
59338;SDS011;45117;50.960;5.500;2023-05-16T06:40:23;7.00;;;1.45;;
59338;SDS011;45117;50.960;5.500;2023-05-16T06:42:50;9.50;;;1.60;;
59338;SDS011;45117;50.960;5.500;2023-05-16T06:45:16;7.43;;;1.10;;
59338;SDS011;45117;50.960;5.500;2023-05-16T06:47:43;7.93;;;1.50;;
59338;SDS011;45117;50.960;5.500;2023-05-16T06:50:11;8.98;;;1.30;;
59338;SDS011;45117;50.960;5.500;2023-05-16T06:52:37;9.48;;;1.70;;
59338;SDS011;45117;50.960;5.500;2023-05-16T06:55:04;10.30;;;1.55;;
59338;SDS011;45117;50.960;5.500;2023-05-16T06:57:31;5.97;;;1.42;;
59338;SDS011;45117;50.960;5.500;2023-05-16T06:59:57;8.88;;;1.10;;
59338;SDS011;45117;50.960;5.500;2023-05-16T07:02:24;6.90;;;1.30;;
59338;SDS011;45117;50.960;5.500;2023-05-16T07:04:50;9.65;;;1.70;;
59338;SDS011;45117;50.960;5.500;2023-05-16T07:07:18;6.15;;;1.38;;
59338;SDS011;45117;50.960;5.500;2023-05-16T07:09:45;7.63;;;1.27;;
59338;SDS011;45117;50.960;5.500;2023-05-16T07:12:11;7.72;;;1.38;;
59338;SDS011;45117;50.960;5.500;2023-05-16T07:14:38;6.50;;;1.30;;
59338;SDS011;45117;50.960;5.500;2023-05-16T07:17:04;5.53;;;1.00;;
59338;SDS011;45117;50.960;5.500;2023-05-16T07:19:31;4.72;;;1.08;;
59338;SDS011;45117;50.960;5.500;2023-05-16T07:21:57;7.55;;;1.20;;
59338;SDS011;45117;50.960;5.500;2023-05-16T07:24:25;5.57;;;1.20;;
59338;SDS011;45117;50.960;5.500;2023-05-16T07:26:51;6.43;;;1.00;;
59338;SDS011;45117;50.960;5.500;2023-05-16T07:29:18;6.53;;;1.13;;
59338;SDS011;45117;50.960;5.500;2023-05-16T07:31:44;6.43;;;1.20;;
59338;SDS011;45117;50.960;5.500;2023-05-16T07:34:11;6.97;;;1.30;;
59338;SDS011;45117;50.960;5.500;2023-05-16T07:36:37;5.70;;;1.75;;
59338;SDS011;45117;50.960;5.500;2023-05-16T07:39:04;7.60;;;1.30;;
59338;SDS011;45117;50.960;5.500;2023-05-16T07:41:32;4.32;;;1.23;;
59338;SDS011;45117;50.960;5.500;2023-05-16T07:43:58;6.82;;;1.70;;
59338;SDS011;45117;50.960;5.500;2023-05-16T07:46:25;7.82;;;1.27;;
59338;SDS011;45117;50.960;5.500;2023-05-16T07:48:51;5.57;;;1.00;;
59338;SDS011;45117;50.960;5.500;2023-05-16T07:51:18;7.22;;;1.40;;
59338;SDS011;45117;50.960;5.500;2023-05-16T07:53:44;7.97;;;1.15;;
59338;SDS011;45117;50.960;5.500;2023-05-16T07:56:11;8.02;;;1.00;;
59338;SDS011;45117;50.960;5.500;2023-05-16T07:58:40;6.25;;;1.27;;
59338;SDS011;45117;50.960;5.500;2023-05-16T08:01:06;5.50;;;1.27;;
59338;SDS011;45117;50.960;5.500;2023-05-16T08:03:33;7.10;;;1.33;;
59338;SDS011;45117;50.960;5.500;2023-05-16T08:06:00;5.22;;;1.02;;
59338;SDS011;45117;50.960;5.500;2023-05-16T08:08:26;8.52;;;1.15;;
59338;SDS011;45117;50.960;5.500;2023-05-16T08:10:53;7.13;;;1.20;;
59338;SDS011;45117;50.960;5.500;2023-05-16T08:13:19;5.38;;;1.02;;
59338;SDS011;45117;50.960;5.500;2023-05-16T08:15:47;5.63;;;0.93;;
59338;SDS011;45117;50.960;5.500;2023-05-16T08:18:14;4.68;;;1.15;;
59338;SDS011;45117;50.960;5.500;2023-05-16T08:20:41;7.22;;;1.10;;
59338;SDS011;45117;50.960;5.500;2023-05-16T08:23:08;6.20;;;1.23;;
59338;SDS011;45117;50.960;5.500;2023-05-16T08:25:34;6.80;;;1.08;;
59338;SDS011;45117;50.960;5.500;2023-05-16T08:28:01;9.02;;;1.27;;
59338;SDS011;45117;50.960;5.500;2023-05-16T08:30:27;7.20;;;1.10;;
59338;SDS011;45117;50.960;5.500;2023-05-16T08:32:55;8.45;;;1.10;;
59338;SDS011;45117;50.960;5.500;2023-05-16T08:35:22;5.93;;;1.23;;
59338;SDS011;45117;50.960;5.500;2023-05-16T08:37:48;7.20;;;1.15;;
59338;SDS011;45117;50.960;5.500;2023-05-16T08:40:15;6.57;;;1.30;;
59338;SDS011;45117;50.960;5.500;2023-05-16T08:42:41;8.25;;;1.15;;
59338;SDS011;45117;50.960;5.500;2023-05-16T08:45:08;10.35;;;1.35;;
59338;SDS011;45117;50.960;5.500;2023-05-16T08:47:35;6.30;;;1.00;;
59338;SDS011;45117;50.960;5.500;2023-05-16T08:50:07;5.95;;;1.42;;
59338;SDS011;45117;50.960;5.500;2023-05-16T08:52:35;8.57;;;1.10;;
59338;SDS011;45117;50.960;5.500;2023-05-16T08:55:04;8.10;;;1.23;;
59338;SDS011;45117;50.960;5.500;2023-05-16T08:57:33;4.40;;;0.95;;
59338;SDS011;45117;50.960;5.500;2023-05-16T09:00:00;3.80;;;1.02;;
59338;SDS011;45117;50.960;5.500;2023-05-16T09:02:35;6.60;;;1.20;;
59338;SDS011;45117;50.960;5.500;2023-05-16T09:05:03;3.75;;;1.08;;
59338;SDS011;45117;50.960;5.500;2023-05-16T09:07:31;5.55;;;1.10;;
59338;SDS011;45117;50.960;5.500;2023-05-16T09:09:58;4.93;;;1.10;;
59338;SDS011;45117;50.960;5.500;2023-05-16T09:12:24;5.03;;;0.90;;
59338;SDS011;45117;50.960;5.500;2023-05-16T09:14:51;4.22;;;1.00;;
59338;SDS011;45117;50.960;5.500;2023-05-16T09:17:17;3.38;;;0.95;;
59338;SDS011;45117;50.960;5.500;2023-05-16T09:19:44;4.68;;;1.00;;
59338;SDS011;45117;50.960;5.500;2023-05-16T09:22:12;4.78;;;0.80;;
59338;SDS011;45117;50.960;5.500;2023-05-16T09:24:42;4.60;;;1.00;;
59338;SDS011;45117;50.960;5.500;2023-05-16T09:27:10;4.55;;;0.82;;
59338;SDS011;45117;50.960;5.500;2023-05-16T09:29:39;8.00;;;1.10;;
59338;SDS011;45117;50.960;5.500;2023-05-16T09:32:09;5.82;;;0.93;;
59338;SDS011;45117;50.960;5.500;2023-05-16T09:34:37;4.28;;;0.88;;
59338;SDS011;45117;50.960;5.500;2023-05-16T09:37:05;5.35;;;1.10;;
59338;SDS011;45117;50.960;5.500;2023-05-16T09:39:31;4.80;;;0.93;;
59338;SDS011;45117;50.960;5.500;2023-05-16T09:41:59;3.50;;;0.68;;
59338;SDS011;45117;50.960;5.500;2023-05-16T09:44:25;3.33;;;0.68;;
59338;SDS011;45117;50.960;5.500;2023-05-16T09:46:52;4.57;;;0.80;;
59338;SDS011;45117;50.960;5.500;2023-05-16T09:49:19;5.22;;;0.85;;
59338;SDS011;45117;50.960;5.500;2023-05-16T09:51:46;2.10;;;0.70;;
59338;SDS011;45117;50.960;5.500;2023-05-16T09:54:12;4.43;;;1.13;;
59338;SDS011;45117;50.960;5.500;2023-05-16T09:56:47;6.18;;;0.95;;
59338;SDS011;45117;50.960;5.500;2023-05-16T09:59:15;3.08;;;0.95;;
59338;SDS011;45117;50.960;5.500;2023-05-16T10:01:42;5.25;;;1.00;;
59338;SDS011;45117;50.960;5.500;2023-05-16T10:04:08;3.75;;;0.85;;
59338;SDS011;45117;50.960;5.500;2023-05-16T10:06:38;3.30;;;0.80;;
59338;SDS011;45117;50.960;5.500;2023-05-16T10:09:05;6.18;;;1.13;;
59338;SDS011;45117;50.960;5.500;2023-05-16T10:11:33;4.35;;;0.90;;
59338;SDS011;45117;50.960;5.500;2023-05-16T10:14:00;3.92;;;0.90;;
59338;SDS011;45117;50.960;5.500;2023-05-16T10:16:29;5.72;;;0.90;;
59338;SDS011;45117;50.960;5.500;2023-05-16T10:18:56;4.25;;;0.75;;
59338;SDS011;45117;50.960;5.500;2023-05-16T10:21:23;4.75;;;1.00;;
59338;SDS011;45117;50.960;5.500;2023-05-16T10:23:51;6.22;;;0.77;;
59338;SDS011;45117;50.960;5.500;2023-05-16T10:26:20;4.65;;;1.10;;
59338;SDS011;45117;50.960;5.500;2023-05-16T10:28:48;8.50;;;0.88;;
59338;SDS011;45117;50.960;5.500;2023-05-16T10:31:17;3.33;;;1.00;;
59338;SDS011;45117;50.960;5.500;2023-05-16T10:33:46;4.68;;;0.95;;
59338;SDS011;45117;50.960;5.500;2023-05-16T10:36:12;4.10;;;1.00;;
59338;SDS011;45117;50.960;5.500;2023-05-16T10:38:40;4.63;;;0.77;;
59338;SDS011;45117;50.960;5.500;2023-05-16T10:41:09;7.32;;;1.02;;
59338;SDS011;45117;50.960;5.500;2023-05-16T10:43:36;6.78;;;0.95;;
59338;SDS011;45117;50.960;5.500;2023-05-16T10:46:03;6.40;;;1.15;;
59338;SDS011;45117;50.960;5.500;2023-05-16T10:48:30;3.72;;;0.88;;
59338;SDS011;45117;50.960;5.500;2023-05-16T10:50:59;6.30;;;1.40;;
59338;SDS011;45117;50.960;5.500;2023-05-16T10:53:31;3.60;;;0.98;;
59338;SDS011;45117;50.960;5.500;2023-05-16T10:56:08;5.07;;;1.17;;
59338;SDS011;45117;50.960;5.500;2023-05-16T10:58:40;3.03;;;0.80;;
59338;SDS011;45117;50.960;5.500;2023-05-16T11:01:22;4.50;;;1.00;;
59338;SDS011;45117;50.960;5.500;2023-05-16T11:03:59;4.95;;;0.90;;
59338;SDS011;45117;50.960;5.500;2023-05-16T11:06:42;6.65;;;1.20;;
59338;SDS011;45117;50.960;5.500;2023-05-16T11:09:17;3.08;;;0.90;;
59338;SDS011;45117;50.960;5.500;2023-05-16T11:11:58;3.65;;;0.98;;
59338;SDS011;45117;50.960;5.500;2023-05-16T11:14:27;4.72;;;1.00;;
59338;SDS011;45117;50.960;5.500;2023-05-16T11:17:01;3.72;;;0.90;;
59338;SDS011;45117;50.960;5.500;2023-05-16T11:19:32;4.70;;;0.90;;
59338;SDS011;45117;50.960;5.500;2023-05-16T11:22:08;5.43;;;1.02;;
59338;SDS011;45117;50.960;5.500;2023-05-16T11:24:44;3.63;;;0.90;;
59338;SDS011;45117;50.960;5.500;2023-05-16T11:27:18;4.47;;;1.00;;
59338;SDS011;45117;50.960;5.500;2023-05-16T11:29:47;4.18;;;1.10;;
59338;SDS011;45117;50.960;5.500;2023-05-16T11:32:14;3.05;;;0.88;;
59338;SDS011;45117;50.960;5.500;2023-05-16T11:34:44;6.50;;;1.00;;
59338;SDS011;45117;50.960;5.500;2023-05-16T11:37:13;4.63;;;0.93;;
59338;SDS011;45117;50.960;5.500;2023-05-16T11:39:40;4.10;;;0.88;;
59338;SDS011;45117;50.960;5.500;2023-05-16T11:42:07;5.00;;;0.80;;
59338;SDS011;45117;50.960;5.500;2023-05-16T11:44:33;5.40;;;1.00;;
59338;SDS011;45117;50.960;5.500;2023-05-16T11:47:00;4.07;;;0.90;;
59338;SDS011;45117;50.960;5.500;2023-05-16T11:49:27;4.20;;;0.80;;
59338;SDS011;45117;50.960;5.500;2023-05-16T11:51:54;2.67;;;0.65;;
59338;SDS011;45117;50.960;5.500;2023-05-16T11:54:23;6.22;;;0.90;;
59338;SDS011;45117;50.960;5.500;2023-05-16T11:56:50;3.58;;;0.70;;
59338;SDS011;45117;50.960;5.500;2023-05-16T11:59:17;2.78;;;0.75;;
59338;SDS011;45117;50.960;5.500;2023-05-16T12:01:45;3.95;;;0.85;;
59338;SDS011;45117;50.960;5.500;2023-05-16T12:04:13;6.18;;;0.85;;
59338;SDS011;45117;50.960;5.500;2023-05-16T12:06:41;5.03;;;1.00;;
59338;SDS011;45117;50.960;5.500;2023-05-16T12:09:10;4.50;;;0.90;;
59338;SDS011;45117;50.960;5.500;2023-05-16T12:11:40;2.08;;;0.60;;
59338;SDS011;45117;50.960;5.500;2023-05-16T12:14:08;2.17;;;0.70;;
59338;SDS011;45117;50.960;5.500;2023-05-16T12:16:37;3.85;;;0.73;;
59338;SDS011;45117;50.960;5.500;2023-05-16T12:19:06;4.03;;;0.88;;
59338;SDS011;45117;50.960;5.500;2023-05-16T12:21:33;5.07;;;1.38;;
59338;SDS011;45117;50.960;5.500;2023-05-16T12:24:00;2.33;;;0.80;;
59338;SDS011;45117;50.960;5.500;2023-05-16T12:26:27;3.15;;;0.70;;
59338;SDS011;45117;50.960;5.500;2023-05-16T12:28:57;3.45;;;0.77;;
59338;SDS011;45117;50.960;5.500;2023-05-16T12:31:25;3.70;;;1.00;;
59338;SDS011;45117;50.960;5.500;2023-05-16T12:33:51;4.75;;;0.98;;
59338;SDS011;45117;50.960;5.500;2023-05-16T12:36:18;5.93;;;1.13;;
59338;SDS011;45117;50.960;5.500;2023-05-16T12:38:45;2.53;;;0.90;;
59338;SDS011;45117;50.960;5.500;2023-05-16T12:41:16;4.90;;;0.88;;
59338;SDS011;45117;50.960;5.500;2023-05-16T12:43:43;3.15;;;0.60;;
59338;SDS011;45117;50.960;5.500;2023-05-16T12:46:11;3.40;;;0.82;;
59338;SDS011;45117;50.960;5.500;2023-05-16T12:48:37;2.58;;;0.80;;
59338;SDS011;45117;50.960;5.500;2023-05-16T12:51:09;5.03;;;1.00;;
59338;SDS011;45117;50.960;5.500;2023-05-16T12:53:40;3.25;;;1.05;;
59338;SDS011;45117;50.960;5.500;2023-05-16T12:56:07;5.35;;;1.02;;
59338;SDS011;45117;50.960;5.500;2023-05-16T12:58:34;2.65;;;0.90;;
59338;SDS011;45117;50.960;5.500;2023-05-16T13:01:01;3.22;;;0.82;;
59338;SDS011;45117;50.960;5.500;2023-05-16T13:03:29;2.97;;;0.82;;
59338;SDS011;45117;50.960;5.500;2023-05-16T13:05:55;5.90;;;0.90;;
59338;SDS011;45117;50.960;5.500;2023-05-16T13:08:22;4.00;;;1.13;;
59338;SDS011;45117;50.960;5.500;2023-05-16T13:10:48;7.93;;;1.23;;
59338;SDS011;45117;50.960;5.500;2023-05-16T13:13:15;6.03;;;1.00;;
59338;SDS011;45117;50.960;5.500;2023-05-16T13:15:43;4.43;;;0.88;;
59338;SDS011;45117;50.960;5.500;2023-05-16T13:18:09;2.80;;;1.00;;
59338;SDS011;45117;50.960;5.500;2023-05-16T13:20:37;4.15;;;1.13;;
59338;SDS011;45117;50.960;5.500;2023-05-16T13:23:04;5.70;;;1.10;;
59338;SDS011;45117;50.960;5.500;2023-05-16T13:25:30;6.13;;;1.05;;
59338;SDS011;45117;50.960;5.500;2023-05-16T13:27:58;3.20;;;0.82;;
59338;SDS011;45117;50.960;5.500;2023-05-16T13:30:24;3.30;;;0.75;;
59338;SDS011;45117;50.960;5.500;2023-05-16T13:32:51;6.30;;;1.10;;
59338;SDS011;45117;50.960;5.500;2023-05-16T13:35:17;4.70;;;0.90;;
59338;SDS011;45117;50.960;5.500;2023-05-16T13:37:45;4.45;;;1.20;;
59338;SDS011;45117;50.960;5.500;2023-05-16T13:40:12;4.63;;;1.40;;
59338;SDS011;45117;50.960;5.500;2023-05-16T13:42:38;5.15;;;1.20;;
59338;SDS011;45117;50.960;5.500;2023-05-16T13:45:05;5.18;;;1.20;;
59338;SDS011;45117;50.960;5.500;2023-05-16T13:47:32;4.18;;;1.13;;
59338;SDS011;45117;50.960;5.500;2023-05-16T13:49:58;4.65;;;1.20;;
59338;SDS011;45117;50.960;5.500;2023-05-16T13:52:30;4.60;;;1.15;;
59338;SDS011;45117;50.960;5.500;2023-05-16T13:54:57;3.35;;;1.05;;
59338;SDS011;45117;50.960;5.500;2023-05-16T13:57:24;6.00;;;1.40;;
59338;SDS011;45117;50.960;5.500;2023-05-16T13:59:51;5.03;;;1.30;;
59338;SDS011;45117;50.960;5.500;2023-05-16T14:02:18;4.88;;;1.42;;
59338;SDS011;45117;50.960;5.500;2023-05-16T14:04:44;3.35;;;0.90;;
59338;SDS011;45117;50.960;5.500;2023-05-16T14:07:11;4.70;;;1.05;;
59338;SDS011;45117;50.960;5.500;2023-05-16T14:09:38;4.72;;;1.10;;
59338;SDS011;45117;50.960;5.500;2023-05-16T14:12:06;3.95;;;0.90;;
59338;SDS011;45117;50.960;5.500;2023-05-16T14:14:34;5.20;;;1.08;;
59338;SDS011;45117;50.960;5.500;2023-05-16T14:17:00;4.45;;;1.10;;
59338;SDS011;45117;50.960;5.500;2023-05-16T14:19:27;3.88;;;1.30;;
59338;SDS011;45117;50.960;5.500;2023-05-16T14:21:54;5.20;;;1.10;;
59338;SDS011;45117;50.960;5.500;2023-05-16T14:24:21;5.25;;;1.10;;
59338;SDS011;45117;50.960;5.500;2023-05-16T14:26:47;3.22;;;1.00;;
59338;SDS011;45117;50.960;5.500;2023-05-16T14:29:15;3.80;;;1.05;;
59338;SDS011;45117;50.960;5.500;2023-05-16T14:31:42;4.47;;;1.13;;
59338;SDS011;45117;50.960;5.500;2023-05-16T14:34:08;5.40;;;1.17;;
59338;SDS011;45117;50.960;5.500;2023-05-16T14:36:35;4.53;;;1.40;;
59338;SDS011;45117;50.960;5.500;2023-05-16T14:39:01;5.25;;;1.08;;
59338;SDS011;45117;50.960;5.500;2023-05-16T14:41:28;2.85;;;1.00;;
59338;SDS011;45117;50.960;5.500;2023-05-16T14:43:54;4.78;;;1.10;;
59338;SDS011;45117;50.960;5.500;2023-05-16T14:46:22;3.95;;;1.20;;